sensor_id;sensor_type;location;lat;lon;timestamp;P1;durP1;ratioP1;P2;durP2;ratioP2
19163;SDS011;9714;51.208;4.242;2022-11-20T00:00:53;35.27;;;20.17;;
19163;SDS011;9714;51.208;4.242;2022-11-20T00:03:21;33.63;;;18.47;;
19163;SDS011;9714;51.208;4.242;2022-11-20T00:05:58;34.63;;;17.97;;
19163;SDS011;9714;51.208;4.242;2022-11-20T00:08:26;32.33;;;17.47;;
19163;SDS011;9714;51.208;4.242;2022-11-20T00:10:53;29.07;;;17.57;;
19163;SDS011;9714;51.208;4.242;2022-11-20T00:13:20;30.67;;;16.77;;
19163;SDS011;9714;51.208;4.242;2022-11-20T00:15:47;33.37;;;17.23;;
19163;SDS011;9714;51.208;4.242;2022-11-20T00:18:14;30.63;;;16.87;;
19163;SDS011;9714;51.208;4.242;2022-11-20T00:20:43;32.33;;;18.20;;
19163;SDS011;9714;51.208;4.242;2022-11-20T00:23:10;34.33;;;17.70;;
19163;SDS011;9714;51.208;4.242;2022-11-20T00:25:37;33.63;;;18.27;;
19163;SDS011;9714;51.208;4.242;2022-11-20T00:28:06;29.43;;;17.60;;
19163;SDS011;9714;51.208;4.242;2022-11-20T00:30:33;29.03;;;16.53;;
19163;SDS011;9714;51.208;4.242;2022-11-20T00:33:06;29.63;;;17.57;;
19163;SDS011;9714;51.208;4.242;2022-11-20T00:35:33;32.77;;;17.17;;
19163;SDS011;9714;51.208;4.242;2022-11-20T00:38:01;33.67;;;17.67;;
19163;SDS011;9714;51.208;4.242;2022-11-20T00:40:28;31.93;;;18.37;;
19163;SDS011;9714;51.208;4.242;2022-11-20T00:42:55;40.10;;;18.60;;
19163;SDS011;9714;51.208;4.242;2022-11-20T00:45:23;34.77;;;17.30;;
19163;SDS011;9714;51.208;4.242;2022-11-20T00:47:50;36.27;;;17.67;;
19163;SDS011;9714;51.208;4.242;2022-11-20T00:50:19;34.90;;;17.13;;
19163;SDS011;9714;51.208;4.242;2022-11-20T00:52:46;38.40;;;18.83;;
19163;SDS011;9714;51.208;4.242;2022-11-20T00:55:14;29.60;;;16.33;;
19163;SDS011;9714;51.208;4.242;2022-11-20T00:57:41;36.97;;;17.40;;
19163;SDS011;9714;51.208;4.242;2022-11-20T01:00:08;30.67;;;17.10;;
19163;SDS011;9714;51.208;4.242;2022-11-20T01:02:38;31.53;;;16.03;;
19163;SDS011;9714;51.208;4.242;2022-11-20T01:05:05;34.77;;;18.47;;
19163;SDS011;9714;51.208;4.242;2022-11-20T01:07:32;32.17;;;17.53;;
19163;SDS011;9714;51.208;4.242;2022-11-20T01:09:59;32.80;;;17.97;;
19163;SDS011;9714;51.208;4.242;2022-11-20T01:12:28;36.33;;;17.77;;
19163;SDS011;9714;51.208;4.242;2022-11-20T01:14:55;34.03;;;18.37;;
19163;SDS011;9714;51.208;4.242;2022-11-20T01:17:22;31.87;;;17.60;;
19163;SDS011;9714;51.208;4.242;2022-11-20T01:19:49;31.80;;;17.33;;
19163;SDS011;9714;51.208;4.242;2022-11-20T01:22:16;36.60;;;18.80;;
19163;SDS011;9714;51.208;4.242;2022-11-20T01:24:43;34.57;;;18.17;;
19163;SDS011;9714;51.208;4.242;2022-11-20T01:27:10;36.83;;;17.53;;
19163;SDS011;9714;51.208;4.242;2022-11-20T01:29:39;35.67;;;18.30;;
19163;SDS011;9714;51.208;4.242;2022-11-20T01:32:06;40.23;;;19.60;;
19163;SDS011;9714;51.208;4.242;2022-11-20T01:34:32;38.73;;;19.37;;
19163;SDS011;9714;51.208;4.242;2022-11-20T01:36:59;40.97;;;19.67;;
19163;SDS011;9714;51.208;4.242;2022-11-20T01:39:26;39.20;;;18.53;;
19163;SDS011;9714;51.208;4.242;2022-11-20T01:41:54;39.53;;;20.33;;
19163;SDS011;9714;51.208;4.242;2022-11-20T01:44:49;41.07;;;19.63;;
19163;SDS011;9714;51.208;4.242;2022-11-20T01:47:20;40.43;;;19.77;;
19163;SDS011;9714;51.208;4.242;2022-11-20T01:49:52;39.07;;;19.10;;
19163;SDS011;9714;51.208;4.242;2022-11-20T01:52:23;40.33;;;20.87;;
19163;SDS011;9714;51.208;4.242;2022-11-20T01:54:54;41.47;;;19.83;;
19163;SDS011;9714;51.208;4.242;2022-11-20T01:57:25;44.90;;;20.70;;
19163;SDS011;9714;51.208;4.242;2022-11-20T01:59:59;48.47;;;21.37;;
19163;SDS011;9714;51.208;4.242;2022-11-20T02:02:29;43.07;;;20.40;;
19163;SDS011;9714;51.208;4.242;2022-11-20T02:04:56;46.87;;;21.53;;
19163;SDS011;9714;51.208;4.242;2022-11-20T02:07:29;45.57;;;22.30;;
19163;SDS011;9714;51.208;4.242;2022-11-20T02:09:57;46.23;;;21.37;;
19163;SDS011;9714;51.208;4.242;2022-11-20T02:12:24;52.37;;;21.47;;
19163;SDS011;9714;51.208;4.242;2022-11-20T02:15:12;46.87;;;20.70;;
19163;SDS011;9714;51.208;4.242;2022-11-20T02:17:39;44.00;;;20.80;;
19163;SDS011;9714;51.208;4.242;2022-11-20T02:20:06;42.87;;;21.80;;
19163;SDS011;9714;51.208;4.242;2022-11-20T02:22:35;41.17;;;20.37;;
19163;SDS011;9714;51.208;4.242;2022-11-20T02:25:10;40.17;;;21.17;;
19163;SDS011;9714;51.208;4.242;2022-11-20T02:27:37;38.70;;;19.50;;
19163;SDS011;9714;51.208;4.242;2022-11-20T02:30:05;46.10;;;20.33;;
19163;SDS011;9714;51.208;4.242;2022-11-20T02:32:34;43.60;;;20.93;;
19163;SDS011;9714;51.208;4.242;2022-11-20T02:35:06;39.50;;;20.60;;
19163;SDS011;9714;51.208;4.242;2022-11-20T02:37:34;39.77;;;21.13;;
19163;SDS011;9714;51.208;4.242;2022-11-20T02:40:03;38.63;;;19.73;;
19163;SDS011;9714;51.208;4.242;2022-11-20T02:42:32;39.60;;;20.50;;
19163;SDS011;9714;51.208;4.242;2022-11-20T02:44:59;35.50;;;20.10;;
19163;SDS011;9714;51.208;4.242;2022-11-20T02:47:27;42.07;;;22.07;;
19163;SDS011;9714;51.208;4.242;2022-11-20T02:49:54;36.37;;;20.13;;
19163;SDS011;9714;51.208;4.242;2022-11-20T02:52:21;39.63;;;20.27;;
19163;SDS011;9714;51.208;4.242;2022-11-20T02:54:48;37.73;;;19.70;;
19163;SDS011;9714;51.208;4.242;2022-11-20T02:57:15;39.73;;;19.40;;
19163;SDS011;9714;51.208;4.242;2022-11-20T02:59:44;37.07;;;19.83;;
19163;SDS011;9714;51.208;4.242;2022-11-20T03:02:11;40.23;;;20.40;;
19163;SDS011;9714;51.208;4.242;2022-11-20T03:04:38;45.57;;;23.50;;
19163;SDS011;9714;51.208;4.242;2022-11-20T03:07:05;49.87;;;25.20;;
19163;SDS011;9714;51.208;4.242;2022-11-20T03:09:33;48.47;;;23.17;;
19163;SDS011;9714;51.208;4.242;2022-11-20T03:12:00;49.17;;;24.77;;
19163;SDS011;9714;51.208;4.242;2022-11-20T03:14:27;49.63;;;23.00;;
19163;SDS011;9714;51.208;4.242;2022-11-20T03:16:56;47.20;;;24.70;;
19163;SDS011;9714;51.208;4.242;2022-11-20T03:19:23;43.93;;;22.87;;
19163;SDS011;9714;51.208;4.242;2022-11-20T03:21:50;50.30;;;25.50;;
19163;SDS011;9714;51.208;4.242;2022-11-20T03:24:17;45.20;;;25.57;;
19163;SDS011;9714;51.208;4.242;2022-11-20T03:26:44;49.97;;;26.57;;
19163;SDS011;9714;51.208;4.242;2022-11-20T03:29:11;52.90;;;25.67;;
19163;SDS011;9714;51.208;4.242;2022-11-20T03:31:38;52.47;;;26.73;;
19163;SDS011;9714;51.208;4.242;2022-11-20T03:34:08;60.73;;;28.23;;
19163;SDS011;9714;51.208;4.242;2022-11-20T03:36:37;61.40;;;28.60;;
19163;SDS011;9714;51.208;4.242;2022-11-20T03:39:04;57.33;;;27.83;;
19163;SDS011;9714;51.208;4.242;2022-11-20T03:41:35;56.83;;;28.47;;
19163;SDS011;9714;51.208;4.242;2022-11-20T03:44:04;60.00;;;28.67;;
19163;SDS011;9714;51.208;4.242;2022-11-20T03:46:32;60.60;;;29.67;;
19163;SDS011;9714;51.208;4.242;2022-11-20T03:48:59;54.87;;;27.37;;
19163;SDS011;9714;51.208;4.242;2022-11-20T03:51:29;63.30;;;30.30;;
19163;SDS011;9714;51.208;4.242;2022-11-20T03:54:00;57.73;;;29.40;;
19163;SDS011;9714;51.208;4.242;2022-11-20T03:56:29;65.37;;;29.80;;
19163;SDS011;9714;51.208;4.242;2022-11-20T03:58:58;65.23;;;34.07;;
19163;SDS011;9714;51.208;4.242;2022-11-20T04:01:26;64.07;;;32.03;;
19163;SDS011;9714;51.208;4.242;2022-11-20T04:03:54;66.20;;;32.33;;
19163;SDS011;9714;51.208;4.242;2022-11-20T04:06:23;61.43;;;30.07;;
19163;SDS011;9714;51.208;4.242;2022-11-20T04:08:53;66.87;;;32.27;;
19163;SDS011;9714;51.208;4.242;2022-11-20T04:11:21;66.00;;;32.90;;
19163;SDS011;9714;51.208;4.242;2022-11-20T04:13:50;68.63;;;32.17;;
19163;SDS011;9714;51.208;4.242;2022-11-20T04:16:18;69.10;;;33.70;;
19163;SDS011;9714;51.208;4.242;2022-11-20T04:18:46;66.77;;;33.00;;
19163;SDS011;9714;51.208;4.242;2022-11-20T04:21:17;68.57;;;33.83;;
19163;SDS011;9714;51.208;4.242;2022-11-20T04:23:44;72.03;;;33.20;;
19163;SDS011;9714;51.208;4.242;2022-11-20T04:26:13;73.87;;;33.07;;
19163;SDS011;9714;51.208;4.242;2022-11-20T04:28:40;77.37;;;37.53;;
19163;SDS011;9714;51.208;4.242;2022-11-20T04:31:07;61.53;;;32.63;;
19163;SDS011;9714;51.208;4.242;2022-11-20T04:33:36;65.43;;;30.07;;
19163;SDS011;9714;51.208;4.242;2022-11-20T04:36:04;67.40;;;32.17;;
19163;SDS011;9714;51.208;4.242;2022-11-20T04:38:32;74.17;;;33.30;;
19163;SDS011;9714;51.208;4.242;2022-11-20T04:41:01;90.80;;;40.77;;
19163;SDS011;9714;51.208;4.242;2022-11-20T04:43:31;74.93;;;32.30;;
19163;SDS011;9714;51.208;4.242;2022-11-20T04:46:00;72.63;;;33.60;;
19163;SDS011;9714;51.208;4.242;2022-11-20T04:48:27;63.73;;;31.17;;
19163;SDS011;9714;51.208;4.242;2022-11-20T04:50:55;70.63;;;32.97;;
19163;SDS011;9714;51.208;4.242;2022-11-20T04:53:22;68.97;;;31.43;;
19163;SDS011;9714;51.208;4.242;2022-11-20T04:55:49;72.47;;;33.27;;
19163;SDS011;9714;51.208;4.242;2022-11-20T04:58:16;78.37;;;34.87;;
19163;SDS011;9714;51.208;4.242;2022-11-20T05:00:45;70.07;;;35.50;;
19163;SDS011;9714;51.208;4.242;2022-11-20T05:03:12;72.00;;;34.23;;
19163;SDS011;9714;51.208;4.242;2022-11-20T05:05:39;70.20;;;33.93;;
19163;SDS011;9714;51.208;4.242;2022-11-20T05:08:05;74.50;;;33.60;;
19163;SDS011;9714;51.208;4.242;2022-11-20T05:10:32;67.93;;;34.93;;
19163;SDS011;9714;51.208;4.242;2022-11-20T05:12:59;69.47;;;35.10;;
19163;SDS011;9714;51.208;4.242;2022-11-20T05:15:26;68.07;;;34.27;;
19163;SDS011;9714;51.208;4.242;2022-11-20T05:17:55;62.07;;;30.77;;
19163;SDS011;9714;51.208;4.242;2022-11-20T05:20:22;75.73;;;38.07;;
19163;SDS011;9714;51.208;4.242;2022-11-20T05:22:50;81.63;;;39.70;;
19163;SDS011;9714;51.208;4.242;2022-11-20T05:25:16;70.37;;;33.73;;
19163;SDS011;9714;51.208;4.242;2022-11-20T05:27:43;66.97;;;33.53;;
19163;SDS011;9714;51.208;4.242;2022-11-20T05:30:11;68.03;;;34.07;;
19163;SDS011;9714;51.208;4.242;2022-11-20T05:32:39;65.63;;;32.20;;
19163;SDS011;9714;51.208;4.242;2022-11-20T05:35:08;66.20;;;33.03;;
19163;SDS011;9714;51.208;4.242;2022-11-20T05:37:35;65.47;;;31.37;;
19163;SDS011;9714;51.208;4.242;2022-11-20T05:40:02;69.80;;;33.53;;
19163;SDS011;9714;51.208;4.242;2022-11-20T05:42:30;65.03;;;32.27;;
19163;SDS011;9714;51.208;4.242;2022-11-20T05:44:57;64.60;;;33.30;;
19163;SDS011;9714;51.208;4.242;2022-11-20T05:47:24;69.23;;;35.00;;
19163;SDS011;9714;51.208;4.242;2022-11-20T05:49:51;64.20;;;31.80;;
19163;SDS011;9714;51.208;4.242;2022-11-20T05:52:19;66.93;;;33.70;;
19163;SDS011;9714;51.208;4.242;2022-11-20T05:54:46;64.83;;;33.13;;
19163;SDS011;9714;51.208;4.242;2022-11-20T05:57:13;67.60;;;31.63;;
19163;SDS011;9714;51.208;4.242;2022-11-20T05:59:40;65.30;;;30.90;;
19163;SDS011;9714;51.208;4.242;2022-11-20T06:02:07;67.77;;;33.53;;
19163;SDS011;9714;51.208;4.242;2022-11-20T06:04:34;61.60;;;30.67;;
19163;SDS011;9714;51.208;4.242;2022-11-20T06:07:01;58.57;;;30.37;;
19163;SDS011;9714;51.208;4.242;2022-11-20T06:09:30;65.50;;;32.53;;
19163;SDS011;9714;51.208;4.242;2022-11-20T06:11:57;57.90;;;29.70;;
19163;SDS011;9714;51.208;4.242;2022-11-20T06:14:23;60.60;;;31.77;;
19163;SDS011;9714;51.208;4.242;2022-11-20T06:16:50;60.37;;;29.77;;
19163;SDS011;9714;51.208;4.242;2022-11-20T06:19:17;59.70;;;29.57;;
19163;SDS011;9714;51.208;4.242;2022-11-20T06:21:44;62.90;;;29.37;;
19163;SDS011;9714;51.208;4.242;2022-11-20T06:24:13;68.43;;;31.40;;
19163;SDS011;9714;51.208;4.242;2022-11-20T06:26:41;61.53;;;30.43;;
19163;SDS011;9714;51.208;4.242;2022-11-20T06:29:08;62.70;;;30.73;;
19163;SDS011;9714;51.208;4.242;2022-11-20T06:31:35;62.27;;;30.00;;
19163;SDS011;9714;51.208;4.242;2022-11-20T06:34:03;60.17;;;29.97;;
19163;SDS011;9714;51.208;4.242;2022-11-20T06:36:30;59.50;;;30.50;;
19163;SDS011;9714;51.208;4.242;2022-11-20T06:38:57;61.30;;;30.30;;
19163;SDS011;9714;51.208;4.242;2022-11-20T06:41:25;60.27;;;29.87;;
19163;SDS011;9714;51.208;4.242;2022-11-20T06:43:54;63.47;;;30.93;;
19163;SDS011;9714;51.208;4.242;2022-11-20T06:46:21;63.57;;;30.67;;
19163;SDS011;9714;51.208;4.242;2022-11-20T06:48:48;63.87;;;30.40;;
19163;SDS011;9714;51.208;4.242;2022-11-20T06:51:16;67.63;;;31.07;;
19163;SDS011;9714;51.208;4.242;2022-11-20T06:53:44;64.53;;;30.23;;
19163;SDS011;9714;51.208;4.242;2022-11-20T06:56:11;60.90;;;29.80;;
19163;SDS011;9714;51.208;4.242;2022-11-20T06:58:38;107.37;;;59.07;;
19163;SDS011;9714;51.208;4.242;2022-11-20T07:01:06;69.20;;;39.40;;
19163;SDS011;9714;51.208;4.242;2022-11-20T07:03:35;64.17;;;32.50;;
19163;SDS011;9714;51.208;4.242;2022-11-20T07:06:02;60.10;;;31.63;;
19163;SDS011;9714;51.208;4.242;2022-11-20T07:08:30;56.20;;;29.73;;
19163;SDS011;9714;51.208;4.242;2022-11-20T07:10:57;58.13;;;29.40;;
19163;SDS011;9714;51.208;4.242;2022-11-20T07:13:25;67.00;;;30.63;;
19163;SDS011;9714;51.208;4.242;2022-11-20T07:15:53;57.97;;;30.50;;
19163;SDS011;9714;51.208;4.242;2022-11-20T07:18:22;63.27;;;29.90;;
19163;SDS011;9714;51.208;4.242;2022-11-20T07:20:49;69.50;;;35.63;;
19163;SDS011;9714;51.208;4.242;2022-11-20T07:23:16;65.03;;;32.23;;
19163;SDS011;9714;51.208;4.242;2022-11-20T07:25:43;60.03;;;30.70;;
19163;SDS011;9714;51.208;4.242;2022-11-20T07:28:10;62.20;;;29.93;;
19163;SDS011;9714;51.208;4.242;2022-11-20T07:30:38;71.53;;;34.93;;
19163;SDS011;9714;51.208;4.242;2022-11-20T07:33:05;57.20;;;29.77;;
19163;SDS011;9714;51.208;4.242;2022-11-20T07:35:34;64.23;;;30.37;;
19163;SDS011;9714;51.208;4.242;2022-11-20T07:38:01;59.23;;;28.40;;
19163;SDS011;9714;51.208;4.242;2022-11-20T07:40:28;58.53;;;29.57;;
19163;SDS011;9714;51.208;4.242;2022-11-20T07:42:54;57.00;;;29.73;;
19163;SDS011;9714;51.208;4.242;2022-11-20T07:45:22;63.03;;;29.87;;
19163;SDS011;9714;51.208;4.242;2022-11-20T07:47:50;58.07;;;28.80;;
19163;SDS011;9714;51.208;4.242;2022-11-20T07:50:17;58.37;;;27.77;;
19163;SDS011;9714;51.208;4.242;2022-11-20T07:52:46;64.90;;;31.90;;
19163;SDS011;9714;51.208;4.242;2022-11-20T07:55:13;59.60;;;29.93;;
19163;SDS011;9714;51.208;4.242;2022-11-20T07:57:40;60.83;;;32.60;;
19163;SDS011;9714;51.208;4.242;2022-11-20T08:00:08;62.10;;;31.10;;
19163;SDS011;9714;51.208;4.242;2022-11-20T08:02:37;69.87;;;33.03;;
19163;SDS011;9714;51.208;4.242;2022-11-20T08:05:05;72.00;;;32.00;;
19163;SDS011;9714;51.208;4.242;2022-11-20T08:07:35;77.37;;;32.83;;
19163;SDS011;9714;51.208;4.242;2022-11-20T08:10:04;79.17;;;35.27;;
19163;SDS011;9714;51.208;4.242;2022-11-20T08:12:32;70.03;;;30.87;;
19163;SDS011;9714;51.208;4.242;2022-11-20T08:15:16;77.10;;;33.60;;
19163;SDS011;9714;51.208;4.242;2022-11-20T08:17:43;72.87;;;33.27;;
19163;SDS011;9714;51.208;4.242;2022-11-20T08:20:10;70.33;;;30.80;;
19163;SDS011;9714;51.208;4.242;2022-11-20T08:22:37;62.43;;;29.23;;
19163;SDS011;9714;51.208;4.242;2022-11-20T08:25:06;66.87;;;29.03;;
19163;SDS011;9714;51.208;4.242;2022-11-20T08:27:33;63.73;;;31.30;;
19163;SDS011;9714;51.208;4.242;2022-11-20T08:30:00;62.80;;;29.90;;
19163;SDS011;9714;51.208;4.242;2022-11-20T08:32:27;70.60;;;33.77;;
19163;SDS011;9714;51.208;4.242;2022-11-20T08:34:54;71.67;;;32.10;;
19163;SDS011;9714;51.208;4.242;2022-11-20T08:37:22;70.00;;;30.23;;
19163;SDS011;9714;51.208;4.242;2022-11-20T08:39:49;65.50;;;30.43;;
19163;SDS011;9714;51.208;4.242;2022-11-20T08:42:19;62.47;;;30.47;;
19163;SDS011;9714;51.208;4.242;2022-11-20T08:44:46;61.90;;;30.00;;
19163;SDS011;9714;51.208;4.242;2022-11-20T08:47:13;69.03;;;31.53;;
19163;SDS011;9714;51.208;4.242;2022-11-20T08:49:40;63.63;;;30.37;;
19163;SDS011;9714;51.208;4.242;2022-11-20T08:52:07;67.90;;;29.83;;
19163;SDS011;9714;51.208;4.242;2022-11-20T08:54:36;66.40;;;30.00;;
19163;SDS011;9714;51.208;4.242;2022-11-20T08:57:03;67.87;;;30.50;;
19163;SDS011;9714;51.208;4.242;2022-11-20T08:59:32;68.87;;;30.50;;
19163;SDS011;9714;51.208;4.242;2022-11-20T09:01:58;62.33;;;30.60;;
19163;SDS011;9714;51.208;4.242;2022-11-20T09:04:25;69.23;;;32.10;;
19163;SDS011;9714;51.208;4.242;2022-11-20T09:06:52;67.23;;;30.70;;
19163;SDS011;9714;51.208;4.242;2022-11-20T09:09:19;66.93;;;32.90;;
19163;SDS011;9714;51.208;4.242;2022-11-20T09:11:46;66.03;;;33.43;;
19163;SDS011;9714;51.208;4.242;2022-11-20T09:14:14;62.87;;;31.43;;
19163;SDS011;9714;51.208;4.242;2022-11-20T09:16:44;74.00;;;30.70;;
19163;SDS011;9714;51.208;4.242;2022-11-20T09:19:11;57.77;;;28.57;;
19163;SDS011;9714;51.208;4.242;2022-11-20T09:21:38;70.47;;;31.97;;
19163;SDS011;9714;51.208;4.242;2022-11-20T09:24:05;69.97;;;31.50;;
19163;SDS011;9714;51.208;4.242;2022-11-20T09:26:33;71.13;;;31.83;;
19163;SDS011;9714;51.208;4.242;2022-11-20T09:28:59;64.27;;;30.33;;
19163;SDS011;9714;51.208;4.242;2022-11-20T09:31:27;71.33;;;31.00;;
19163;SDS011;9714;51.208;4.242;2022-11-20T09:33:56;77.47;;;33.53;;
19163;SDS011;9714;51.208;4.242;2022-11-20T09:36:23;76.87;;;34.50;;
19163;SDS011;9714;51.208;4.242;2022-11-20T09:38:50;76.30;;;32.57;;
19163;SDS011;9714;51.208;4.242;2022-11-20T09:41:27;76.10;;;30.67;;
19163;SDS011;9714;51.208;4.242;2022-11-20T09:44:17;83.40;;;34.43;;
19163;SDS011;9714;51.208;4.242;2022-11-20T09:46:54;71.17;;;29.50;;
19163;SDS011;9714;51.208;4.242;2022-11-20T09:49:30;107.97;;;51.73;;
19163;SDS011;9714;51.208;4.242;2022-11-20T09:52:10;81.33;;;36.23;;
19163;SDS011;9714;51.208;4.242;2022-11-20T09:54:46;76.33;;;33.03;;
19163;SDS011;9714;51.208;4.242;2022-11-20T09:57:13;76.07;;;33.57;;
19163;SDS011;9714;51.208;4.242;2022-11-20T09:59:46;92.60;;;38.77;;
19163;SDS011;9714;51.208;4.242;2022-11-20T10:02:17;79.70;;;34.10;;
19163;SDS011;9714;51.208;4.242;2022-11-20T10:04:57;78.80;;;32.97;;
19163;SDS011;9714;51.208;4.242;2022-11-20T10:07:29;80.03;;;32.47;;
19163;SDS011;9714;51.208;4.242;2022-11-20T10:10:03;82.90;;;32.07;;
19163;SDS011;9714;51.208;4.242;2022-11-20T10:12:33;81.50;;;32.13;;
19163;SDS011;9714;51.208;4.242;2022-11-20T10:15:18;84.17;;;33.97;;
19163;SDS011;9714;51.208;4.242;2022-11-20T10:17:59;82.37;;;32.90;;
19163;SDS011;9714;51.208;4.242;2022-11-20T10:20:38;88.53;;;33.83;;
19163;SDS011;9714;51.208;4.242;2022-11-20T10:23:17;81.50;;;30.70;;
19163;SDS011;9714;51.208;4.242;2022-11-20T10:28:50;81.93;;;33.07;;
19163;SDS011;9714;51.208;4.242;2022-11-20T10:31:33;93.60;;;32.57;;
19163;SDS011;9714;51.208;4.242;2022-11-20T10:34:04;83.13;;;32.10;;
19163;SDS011;9714;51.208;4.242;2022-11-20T10:36:40;80.20;;;32.53;;
19163;SDS011;9714;51.208;4.242;2022-11-20T10:39:14;81.60;;;31.10;;
19163;SDS011;9714;51.208;4.242;2022-11-20T10:41:47;73.00;;;29.40;;
19163;SDS011;9714;51.208;4.242;2022-11-20T10:44:19;76.50;;;31.53;;
19163;SDS011;9714;51.208;4.242;2022-11-20T10:47:01;85.40;;;32.60;;
19163;SDS011;9714;51.208;4.242;2022-11-20T10:49:29;75.50;;;30.60;;
19163;SDS011;9714;51.208;4.242;2022-11-20T10:52:02;79.27;;;32.70;;
19163;SDS011;9714;51.208;4.242;2022-11-20T10:54:39;78.87;;;30.33;;
19163;SDS011;9714;51.208;4.242;2022-11-20T10:57:14;85.33;;;31.50;;
19163;SDS011;9714;51.208;4.242;2022-11-20T10:59:55;80.73;;;32.17;;
19163;SDS011;9714;51.208;4.242;2022-11-20T11:02:34;82.10;;;31.70;;
19163;SDS011;9714;51.208;4.242;2022-11-20T11:05:10;77.83;;;31.87;;
19163;SDS011;9714;51.208;4.242;2022-11-20T11:07:46;75.77;;;31.33;;
19163;SDS011;9714;51.208;4.242;2022-11-20T11:10:16;83.03;;;32.73;;
19163;SDS011;9714;51.208;4.242;2022-11-20T11:12:46;69.73;;;28.70;;
19163;SDS011;9714;51.208;4.242;2022-11-20T11:15:14;69.13;;;29.97;;
19163;SDS011;9714;51.208;4.242;2022-11-20T11:17:51;82.90;;;30.97;;
19163;SDS011;9714;51.208;4.242;2022-11-20T11:20:20;74.27;;;28.87;;
19163;SDS011;9714;51.208;4.242;2022-11-20T11:22:49;66.30;;;28.47;;
19163;SDS011;9714;51.208;4.242;2022-11-20T11:25:22;71.23;;;30.47;;
19163;SDS011;9714;51.208;4.242;2022-11-20T11:27:56;73.40;;;30.73;;
19163;SDS011;9714;51.208;4.242;2022-11-20T11:30:26;67.27;;;27.07;;
19163;SDS011;9714;51.208;4.242;2022-11-20T11:33:05;78.60;;;31.10;;
19163;SDS011;9714;51.208;4.242;2022-11-20T11:35:38;69.10;;;28.00;;
19163;SDS011;9714;51.208;4.242;2022-11-20T11:38:14;62.43;;;26.07;;
19163;SDS011;9714;51.208;4.242;2022-11-20T11:40:43;60.00;;;25.80;;
19163;SDS011;9714;51.208;4.242;2022-11-20T11:43:17;70.03;;;29.70;;
19163;SDS011;9714;51.208;4.242;2022-11-20T11:46:04;78.50;;;35.00;;
19163;SDS011;9714;51.208;4.242;2022-11-20T11:48:54;73.10;;;29.30;;
19163;SDS011;9714;51.208;4.242;2022-11-20T11:51:23;63.87;;;25.97;;
19163;SDS011;9714;51.208;4.242;2022-11-20T11:53:55;67.23;;;28.77;;
19163;SDS011;9714;51.208;4.242;2022-11-20T11:56:24;62.80;;;25.37;;
19163;SDS011;9714;51.208;4.242;2022-11-20T11:58:53;63.40;;;27.93;;
19163;SDS011;9714;51.208;4.242;2022-11-20T12:01:27;56.90;;;23.87;;
19163;SDS011;9714;51.208;4.242;2022-11-20T12:04:00;53.10;;;22.30;;
19163;SDS011;9714;51.208;4.242;2022-11-20T12:06:32;55.53;;;22.60;;
19163;SDS011;9714;51.208;4.242;2022-11-20T12:09:03;47.90;;;22.77;;
19163;SDS011;9714;51.208;4.242;2022-11-20T12:11:32;52.10;;;21.13;;
19163;SDS011;9714;51.208;4.242;2022-11-20T12:14:07;43.93;;;19.80;;
19163;SDS011;9714;51.208;4.242;2022-11-20T12:16:39;48.00;;;20.60;;
19163;SDS011;9714;51.208;4.242;2022-11-20T12:19:08;46.20;;;20.30;;
19163;SDS011;9714;51.208;4.242;2022-11-20T12:21:42;42.33;;;18.17;;
19163;SDS011;9714;51.208;4.242;2022-11-20T12:24:31;42.03;;;17.37;;
19163;SDS011;9714;51.208;4.242;2022-11-20T12:27:11;34.00;;;14.40;;
19163;SDS011;9714;51.208;4.242;2022-11-20T12:30:00;26.63;;;9.77;;
19163;SDS011;9714;51.208;4.242;2022-11-20T12:32:53;18.67;;;6.97;;
19163;SDS011;9714;51.208;4.242;2022-11-20T12:38:32;17.27;;;6.53;;
19163;SDS011;9714;51.208;4.242;2022-11-20T12:41:15;14.77;;;5.53;;
19163;SDS011;9714;51.208;4.242;2022-11-20T12:44:08;11.37;;;4.53;;
19163;SDS011;9714;51.208;4.242;2022-11-20T12:47:07;17.17;;;5.70;;
19163;SDS011;9714;51.208;4.242;2022-11-20T12:49:47;11.37;;;4.23;;
19163;SDS011;9714;51.208;4.242;2022-11-20T12:52:21;14.23;;;3.53;;
19163;SDS011;9714;51.208;4.242;2022-11-20T12:55:07;14.47;;;3.57;;
19163;SDS011;9714;51.208;4.242;2022-11-20T12:57:43;10.30;;;3.60;;
19163;SDS011;9714;51.208;4.242;2022-11-20T13:00:16;18.00;;;4.47;;
19163;SDS011;9714;51.208;4.242;2022-11-20T13:05:52;10.10;;;3.80;;
19163;SDS011;9714;51.208;4.242;2022-11-20T13:08:28;13.93;;;4.43;;
19163;SDS011;9714;51.208;4.242;2022-11-20T13:11:00;12.10;;;3.97;;
19163;SDS011;9714;51.208;4.242;2022-11-20T13:13:39;11.77;;;4.90;;
19163;SDS011;9714;51.208;4.242;2022-11-20T13:16:17;18.87;;;5.10;;
19163;SDS011;9714;51.208;4.242;2022-11-20T13:18:50;18.03;;;4.40;;
19163;SDS011;9714;51.208;4.242;2022-11-20T13:21:18;26.97;;;10.40;;
19163;SDS011;9714;51.208;4.242;2022-11-20T13:23:48;11.03;;;4.13;;
19163;SDS011;9714;51.208;4.242;2022-11-20T13:26:16;13.83;;;4.37;;
19163;SDS011;9714;51.208;4.242;2022-11-20T13:28:47;11.50;;;3.97;;
19163;SDS011;9714;51.208;4.242;2022-11-20T13:31:32;12.77;;;4.67;;
19163;SDS011;9714;51.208;4.242;2022-11-20T13:34:03;17.13;;;8.13;;
19163;SDS011;9714;51.208;4.242;2022-11-20T13:36:34;12.17;;;4.27;;
19163;SDS011;9714;51.208;4.242;2022-11-20T13:39:01;13.77;;;4.57;;
19163;SDS011;9714;51.208;4.242;2022-11-20T13:41:29;11.60;;;4.13;;
19163;SDS011;9714;51.208;4.242;2022-11-20T13:44:05;16.27;;;4.20;;
19163;SDS011;9714;51.208;4.242;2022-11-20T13:46:38;12.07;;;4.47;;
19163;SDS011;9714;51.208;4.242;2022-11-20T13:49:14;13.03;;;5.33;;
19163;SDS011;9714;51.208;4.242;2022-11-20T13:51:44;15.30;;;4.40;;
19163;SDS011;9714;51.208;4.242;2022-11-20T13:54:22;17.30;;;4.93;;
19163;SDS011;9714;51.208;4.242;2022-11-20T13:57:30;14.73;;;5.47;;
19163;SDS011;9714;51.208;4.242;2022-11-20T14:00:12;11.97;;;4.93;;
19163;SDS011;9714;51.208;4.242;2022-11-20T14:02:41;14.20;;;4.87;;
19163;SDS011;9714;51.208;4.242;2022-11-20T14:05:15;35.80;;;19.80;;
19163;SDS011;9714;51.208;4.242;2022-11-20T14:07:46;21.60;;;12.10;;
19163;SDS011;9714;51.208;4.242;2022-11-20T14:10:22;12.57;;;4.60;;
19163;SDS011;9714;51.208;4.242;2022-11-20T14:12:50;17.70;;;7.80;;
19163;SDS011;9714;51.208;4.242;2022-11-20T14:15:25;18.03;;;8.80;;
19163;SDS011;9714;51.208;4.242;2022-11-20T14:17:54;18.77;;;7.47;;
19163;SDS011;9714;51.208;4.242;2022-11-20T14:20:21;21.87;;;11.13;;
19163;SDS011;9714;51.208;4.242;2022-11-20T14:22:51;18.03;;;8.70;;
19163;SDS011;9714;51.208;4.242;2022-11-20T14:25:19;20.00;;;11.93;;
19163;SDS011;9714;51.208;4.242;2022-11-20T14:27:52;19.70;;;11.33;;
19163;SDS011;9714;51.208;4.242;2022-11-20T14:30:23;23.60;;;12.07;;
19163;SDS011;9714;51.208;4.242;2022-11-20T14:32:53;12.70;;;6.63;;
19163;SDS011;9714;51.208;4.242;2022-11-20T14:35:23;17.13;;;9.63;;
19163;SDS011;9714;51.208;4.242;2022-11-20T14:37:51;8.40;;;3.57;;
19163;SDS011;9714;51.208;4.242;2022-11-20T14:40:23;10.87;;;4.93;;
19163;SDS011;9714;51.208;4.242;2022-11-20T14:42:52;11.33;;;4.67;;
19163;SDS011;9714;51.208;4.242;2022-11-20T14:45:19;10.27;;;4.93;;
19163;SDS011;9714;51.208;4.242;2022-11-20T14:47:48;15.23;;;7.60;;
19163;SDS011;9714;51.208;4.242;2022-11-20T14:50:19;11.43;;;5.97;;
19163;SDS011;9714;51.208;4.242;2022-11-20T14:52:53;11.30;;;4.87;;
19163;SDS011;9714;51.208;4.242;2022-11-20T14:55:24;17.17;;;9.83;;
19163;SDS011;9714;51.208;4.242;2022-11-20T14:57:54;26.17;;;16.13;;
19163;SDS011;9714;51.208;4.242;2022-11-20T15:00:22;11.50;;;5.33;;
19163;SDS011;9714;51.208;4.242;2022-11-20T15:02:51;13.67;;;5.77;;